Capitol Logistics 501




YSSY
Kingsford Smith International Airport
Sydney, AU
PHNL
Daniel K Inouye International Airport
Honolulu, US

Route Details

Aircraft Information
Group: Trans-Pacific Ops
Types: B744,B763,MD11
Route Data
Demand: V
Distance: 4417nm
Duration: 10h 00m
Recm'd Route: DIPSO G595 SOTKI 3316S15702E 3251S15815E 3049S16300E 2930S16548E 2706S16930E 2500S17202E 2452S17212E 2137S17527E 1843S17754E 1515S17939W 1229S17805W 0912S17629W 0527S17452W 0500S17440W 0002N17232W 0408N17031W 0938N16718W 1439N16337W 1809N16026W CARRP OPACA4
Origin Wx: YSSY 270600Z 03011KT 9999 FEW040 21/12 Q1015
Dest. Wx: PHNL 270553Z 07005KT 10SM FEW033 FEW050 24/17 A3000 RMK AO2 SLP157 T02440167 10294 20244 51016
Notes:

Financial History
Total Freight: 679,966lbs
Average Load: 169,992lbs/flt
Fuel Used: 799,328lbs
Avg. Fuel Used: 199,832lbs/flt
Fuel Expense: $592,475
Avg. Fuel Expense: $148,119
Avg. Fuel Cost: $0.75/lbs
Total Gross Income: $2,614,589
Pilot Pay: $726
Total Expenses: $291,438
Total Revenue: $1,726,267
Average Revenue: $653,647.20